Time;durP1;ratioP1;P1;durP2;ratioP2;P2;SDS_P1;SDS_P2;PMS_P1;PMS_P2;Temp;Humidity;BMP_temperature;BMP_pressure;BME280_temperature;BME280_humidity;BME280_pressure;Samples;Min_cycle;Max_cycle;Signal;HPM_P1;HPM_P2
2023/10/20 00:02:17;;;;;;;35.38;20.40;;;;;;;-143.90;100.00;65065.84;6183583;23;20349;-79
2023/10/20 00:04:44;;;;;;;29.70;18.75;;;;;;;-143.90;100.00;65065.84;6159317;23;20009;-79
2023/10/20 00:07:10;;;;;;;38.85;21.40;;;;;;;-143.90;100.00;65065.84;6158803;23;20009;-78
2023/10/20 00:09:35;;;;;;;32.15;19.88;;;;;;;-143.90;100.00;65065.84;6185272;23;20012;-80
2023/10/20 00:12:01;;;;;;;42.10;22.05;;;;;;;-143.90;100.00;65065.84;6184596;23;20013;-80
2023/10/20 00:14:26;;;;;;;39.00;22.83;;;;;;;-143.90;100.00;65065.84;6184951;23;20005;-79
2023/10/20 00:16:51;;;;;;;36.17;22.58;;;;;;;-143.90;100.00;65065.84;6184995;23;20012;-79
2023/10/20 00:19:18;;;;;;;33.22;20.92;;;;;;;-143.90;100.00;65065.84;6158516;23;20338;-79
2023/10/20 00:21:45;;;;;;;35.55;21.75;;;;;;;-143.90;100.00;65065.84;6185002;23;20032;-80
2023/10/20 00:24:10;;;;;;;40.90;22.83;;;;;;;-143.90;100.00;65065.84;6184880;23;20005;-81
2023/10/20 00:26:36;;;;;;;40.88;23.58;;;;;;;-143.90;100.00;65065.84;6158480;23;20009;-81
2023/10/20 00:29:01;;;;;;;41.13;24.00;;;;;;;-143.90;100.00;65065.84;6184550;23;20012;-80
2023/10/20 00:31:29;;;;;;;38.55;22.25;;;;;;;-143.90;100.00;65065.84;6184939;23;20001;-80
2023/10/20 00:33:54;;;;;;;36.60;21.40;;;;;;;-143.90;100.00;65065.84;6184611;23;20009;-80
2023/10/20 00:36:20;;;;;;;42.22;24.67;;;;;;;-143.90;100.00;65065.84;6184678;23;20087;-79
2023/10/20 00:38:45;;;;;;;38.65;23.42;;;;;;;-143.90;100.00;65065.84;6158505;23;20009;-79
2023/10/20 00:41:10;;;;;;;44.72;24.65;;;;;;;-143.90;100.00;65065.84;6183158;23;20005;-79
2023/10/20 00:43:37;;;;;;;40.50;22.10;;;;;;;-143.90;100.00;65065.84;6184709;23;20312;-79
2023/10/20 00:46:04;;;;;;;42.03;22.35;;;;;;;-143.90;100.00;65065.84;6158462;23;20334;-79
2023/10/20 00:48:31;;;;;;;45.42;25.38;;;;;;;-143.90;100.00;65065.84;6183123;23;20020;-79
2023/10/20 00:50:57;;;;;;;39.42;21.90;;;;;;;-143.90;100.00;65065.84;6184747;23;20545;-81
2023/10/20 00:53:23;;;;;;;44.38;23.83;;;;;;;-143.90;100.00;65065.84;6183245;23;20005;-82
2023/10/20 00:55:50;;;;;;;45.40;26.08;;;;;;;-143.90;100.00;65065.84;6183652;23;20005;-82
2023/10/20 00:58:15;;;;;;;42.38;24.02;;;;;;;-143.90;100.00;65065.84;6185114;23;20020;-81
2023/10/20 01:00:41;;;;;;;45.90;24.27;;;;;;;-143.90;100.00;65065.84;6185258;23;20422;-82
2023/10/20 01:03:06;;;;;;;48.58;25.27;;;;;;;-143.90;100.00;65065.84;6185119;23;20009;-82
2023/10/20 01:05:32;;;;;;;47.35;24.60;;;;;;;-143.90;100.00;65065.84;6158521;23;20005;-81
2023/10/20 01:07:58;;;;;;;49.20;27.35;;;;;;;-143.90;100.00;65065.84;6183284;23;20075;-80
2023/10/20 01:11:18;;;;;;;57.20;25.90;;;;;;;-143.90;100.00;65065.84;6184825;23;20001;-80
2023/10/20 01:13:44;;;;;;;51.67;25.42;;;;;;;-143.90;100.00;65065.84;6103302;23;20024;-80
2023/10/20 01:16:09;;;;;;;47.55;25.63;;;;;;;-143.90;100.00;65065.84;6157813;23;20346;-81
2023/10/20 01:18:34;;;;;;;49.85;25.10;;;;;;;-143.90;100.00;65065.84;6184182;23;20009;-78
2023/10/20 01:20:59;;;;;;;53.23;26.17;;;;;;;-143.90;100.00;65065.84;6182528;23;20013;-79
2023/10/20 01:23:25;;;;;;;49.58;25.85;;;;;;;-143.90;100.00;65065.84;6184268;23;20271;-78
2023/10/20 01:25:53;;;;;;;49.03;24.85;;;;;;;-143.90;100.00;65065.84;6184101;23;20033;-79
2023/10/20 01:28:19;;;;;;;49.30;26.23;;;;;;;-143.90;100.00;65065.84;6184188;23;20423;-78
2023/10/20 01:30:44;;;;;;;47.05;25.08;;;;;;;-143.90;100.00;65065.84;6157636;23;20005;-79
2023/10/20 01:33:09;;;;;;;52.28;27.27;;;;;;;-143.90;100.00;65065.84;6184122;23;20327;-79
2023/10/20 01:35:35;;;;;;;44.58;22.63;;;;;;;-143.90;100.00;65065.84;6182543;23;20522;-79
2023/10/20 01:38:00;;;;;;;48.28;25.15;;;;;;;-143.90;100.00;65065.84;6183975;23;20441;-79
2023/10/20 01:40:27;;;;;;;50.92;26.02;;;;;;;-143.90;100.00;65065.84;6182520;23;20009;-79
2023/10/20 01:42:52;;;;;;;52.70;28.55;;;;;;;-143.90;100.00;65065.84;6184173;23;20444;-79
2023/10/20 01:45:18;;;;;;;56.97;28.13;;;;;;;-143.90;100.00;65065.84;6157586;23;20005;-79
2023/10/20 01:47:43;;;;;;;54.88;26.67;;;;;;;-143.90;100.00;65065.84;6157815;23;20088;-78
2023/10/20 01:50:09;;;;;;;59.10;28.73;;;;;;;-143.90;100.00;65065.84;6183984;23;20489;-77
2023/10/20 01:52:34;;;;;;;49.33;26.20;;;;;;;-143.90;100.00;65065.84;6182493;23;20008;-78
2023/10/20 01:54:59;;;;;;;55.58;27.45;;;;;;;-143.90;100.00;65065.84;6156932;23;20016;-78
2023/10/20 01:57:25;;;;;;;47.28;24.42;;;;;;;-143.90;100.00;65065.84;6157668;23;20136;-79
2023/10/20 01:59:50;;;;;;;57.45;27.45;;;;;;;-143.90;100.00;65065.84;6183809;23;20013;-78
2023/10/20 02:02:15;;;;;;;59.55;29.98;;;;;;;-143.90;100.00;65065.84;6182616;23;20067;-78
2023/10/20 02:04:41;;;;;;;53.90;27.40;;;;;;;-143.90;100.00;65065.84;6183924;23;20338;-78
2023/10/20 02:07:06;;;;;;;53.13;27.00;;;;;;;-143.90;100.00;65065.84;6157515;23;20037;-78
2023/10/20 02:09:32;;;;;;;57.05;25.90;;;;;;;-143.90;100.00;65065.84;6182256;23;20426;-77
2023/10/20 02:11:58;;;;;;;46.33;23.35;;;;;;;-143.90;100.00;65065.84;6157400;23;20039;-79
2023/10/20 02:14:26;;;;;;;56.90;27.60;;;;;;;-143.90;100.00;65065.84;6182418;23;20009;-79
2023/10/20 02:16:52;;;;;;;54.95;27.88;;;;;;;-143.90;100.00;65065.84;6182400;23;20365;-78
2023/10/20 02:19:17;;;;;;;56.05;27.85;;;;;;;-143.90;100.00;65065.84;6182231;23;20013;-77
2023/10/20 02:21:42;;;;;;;53.25;25.05;;;;;;;-143.90;100.00;65065.84;6183858;23;20008;-78
2023/10/20 02:24:08;;;;;;;50.53;25.17;;;;;;;-143.90;100.00;65065.84;6157369;23;20434;-78
2023/10/20 02:26:33;;;;;;;51.05;26.30;;;;;;;-143.90;100.00;65065.84;6183917;23;20012;-76
2023/10/20 02:28:59;;;;;;;53.65;26.27;;;;;;;-143.90;100.00;65065.84;6132760;23;20013;-76
2023/10/20 02:31:24;;;;;;;41.78;22.08;;;;;;;-143.90;100.00;65065.84;6157334;23;20044;-77
2023/10/20 02:33:49;;;;;;;40.25;20.05;;;;;;;-143.90;100.00;65065.84;6183738;23;20009;-77
2023/10/20 02:36:19;;;;;;;51.80;25.90;;;;;;;-143.90;100.00;65065.84;6157455;23;20009;-77
2023/10/20 02:38:46;;;;;;;48.40;25.48;;;;;;;-143.90;100.00;65065.84;6157087;23;20063;-78
2023/10/20 02:41:13;;;;;;;52.28;26.15;;;;;;;-143.90;100.00;65065.84;6183658;23;20013;-78
2023/10/20 02:43:38;;;;;;;46.05;23.95;;;;;;;-143.90;100.00;65065.84;6183672;23;20005;-78
2023/10/20 02:46:03;;;;;;;47.85;26.40;;;;;;;-143.90;100.00;65065.84;6183627;23;20005;-77
2023/10/20 02:48:29;;;;;;;44.88;24.05;;;;;;;-143.90;100.00;65065.84;6156965;23;20148;-78
2023/10/20 02:50:54;;;;;;;49.63;26.50;;;;;;;-143.90;100.00;65065.84;6183613;23;20009;-78
2023/10/20 02:53:20;;;;;;;54.95;26.13;;;;;;;-143.90;100.00;65065.84;6183478;23;20088;-79
2023/10/20 02:55:45;;;;;;;51.50;24.83;;;;;;;-143.90;100.00;65065.84;6157241;23;20338;-78
2023/10/20 02:58:12;;;;;;;49.75;26.08;;;;;;;-143.90;100.00;65065.84;6183339;23;20013;-79
2023/10/20 03:00:45;;;;;;;48.25;26.55;;;;;;;-143.90;100.00;65065.84;6183481;23;20001;-78
2023/10/20 03:03:12;;;;;;;51.97;27.08;;;;;;;-143.90;100.00;65065.84;6183364;23;20117;-78
2023/10/20 03:05:43;;;;;;;47.47;25.85;;;;;;;-143.90;100.00;65065.84;6183894;23;20001;-78
2023/10/20 03:08:11;;;;;;;37.35;22.15;;;;;;;-143.90;100.00;65065.84;6184569;23;20346;-79
2023/10/20 03:10:38;;;;;;;50.50;26.63;;;;;;;-143.90;100.00;65065.84;6183051;23;20311;-77
2023/10/20 03:13:04;;;;;;;51.10;27.73;;;;;;;-143.90;100.00;65065.84;6182951;23;20012;-78
2023/10/20 03:15:31;;;;;;;49.03;26.00;;;;;;;-143.90;100.00;65065.84;6158033;23;20043;-77
2023/10/20 03:17:56;;;;;;;45.75;23.48;;;;;;;-143.90;100.00;65065.84;6182894;23;20402;-78
2023/10/20 03:20:28;;;;;;;52.40;27.48;;;;;;;-143.90;100.00;65065.84;6183098;23;20013;-77
2023/10/20 03:22:54;;;;;;;47.83;24.65;;;;;;;-143.90;100.00;65065.84;6184531;23;20492;-78
2023/10/20 03:25:19;;;;;;;45.25;25.92;;;;;;;-143.90;100.00;65065.84;6184997;23;20005;-77
2023/10/20 03:27:45;;;;;;;48.60;24.80;;;;;;;-143.90;100.00;65065.84;6158201;23;20039;-77
2023/10/20 03:30:10;;;;;;;47.17;24.23;;;;;;;-143.90;100.00;65065.84;6184430;23;20017;-78
2023/10/20 03:32:35;;;;;;;44.88;24.90;;;;;;;-143.90;100.00;65065.84;6184524;23;20044;-78
2023/10/20 03:35:01;;;;;;;47.92;26.40;;;;;;;-143.90;100.00;65065.84;6184408;23;20013;-78
2023/10/20 03:37:27;;;;;;;49.83;24.42;;;;;;;-143.90;100.00;65065.84;6184655;23;20406;-77
2023/10/20 03:39:53;;;;;;;51.10;27.40;;;;;;;-143.90;100.00;65065.84;6185027;23;20013;-77
2023/10/20 03:42:18;;;;;;;49.28;26.23;;;;;;;-143.90;100.00;65065.84;6184437;23;20040;-77
2023/10/20 03:44:43;;;;;;;53.33;26.73;;;;;;;-143.90;100.00;65065.84;6158185;23;20012;-78
2023/10/20 03:47:09;;;;;;;47.33;25.50;;;;;;;-143.90;100.00;65065.84;6184543;23;20015;-78
2023/10/20 03:49:35;;;;;;;50.63;27.42;;;;;;;-143.90;100.00;65065.84;6184448;23;20033;-77
2023/10/20 03:52:06;;;;;;;47.22;24.83;;;;;;;-143.90;100.00;65065.84;6184419;23;20040;-78
2023/10/20 03:54:32;;;;;;;42.80;23.90;;;;;;;-143.90;100.00;65065.84;6184563;23;20452;-77
2023/10/20 03:57:00;;;;;;;53.05;28.40;;;;;;;-143.90;100.00;65065.84;6158155;23;20044;-77
2023/10/20 03:59:26;;;;;;;46.35;25.20;;;;;;;-143.90;100.00;65065.84;6184403;23;20013;-77
2023/10/20 04:01:51;;;;;;;53.35;26.10;;;;;;;-143.90;100.00;65065.84;6184353;23;20444;-77
2023/10/20 04:04:17;;;;;;;47.35;27.35;;;;;;;-143.90;100.00;65065.84;6182573;23;20063;-77
2023/10/20 04:06:44;;;;;;;49.17;26.48;;;;;;;-143.90;100.00;65065.84;6157947;23;20045;-78
2023/10/20 04:09:10;;;;;;;50.08;26.30;;;;;;;-143.90;100.00;65065.84;6157950;23;20020;-78
2023/10/20 04:11:35;;;;;;;45.33;27.20;;;;;;;-143.90;100.00;65065.84;6184372;23;20083;-78
2023/10/20 04:14:06;;;;;;;43.00;25.38;;;;;;;-143.90;100.00;65065.84;6182724;23;20438;-78
2023/10/20 04:16:41;;;;;;;46.53;27.50;;;;;;;-143.90;100.00;65065.84;6157548;23;20362;-79
2023/10/20 04:19:12;;;;;;;50.65;27.25;;;;;;;-143.90;100.00;65065.84;6157954;23;20017;-78
2023/10/20 04:21:39;;;;;;;50.20;27.00;;;;;;;-143.90;100.00;65065.84;6184382;23;20001;-78
2023/10/20 04:24:09;;;;;;;41.95;25.38;;;;;;;-143.90;100.00;65065.84;6184416;23;20009;-78
2023/10/20 04:26:36;;;;;;;48.72;25.75;;;;;;;-143.90;100.00;65065.84;6158063;23;20001;-77
2023/10/20 04:56:23;;;;;;;51.30;29.20;;;;;;;-143.90;100.00;65065.84;6184386;23;20013;-79
2023/10/20 05:01:30;;;;;;;53.88;27.50;;;;;;;-143.90;100.00;65065.84;6190992;23;19908;-77
2023/10/20 05:03:58;;;;;;;55.55;31.10;;;;;;;-143.90;100.00;65065.84;6184222;23;20009;-78
2023/10/20 05:06:31;;;;;;;53.00;28.35;;;;;;;-143.90;100.00;65065.84;6184028;23;20484;-77
2023/10/20 05:08:57;;;;;;;55.33;29.42;;;;;;;-143.90;100.00;65065.84;6183920;23;20302;-76
2023/10/20 05:11:23;;;;;;;54.45;29.48;;;;;;;-143.90;100.00;65065.84;6184804;23;20005;-77
2023/10/20 05:13:48;;;;;;;60.20;31.58;;;;;;;-143.90;100.00;65065.84;6184086;23;20418;-76
2023/10/20 05:16:13;;;;;;;57.72;30.02;;;;;;;-143.90;100.00;65065.84;6182437;23;20005;-76
2023/10/20 05:18:39;;;;;;;59.88;30.55;;;;;;;-143.90;100.00;65065.84;6183953;23;20013;-77
2023/10/20 05:21:06;;;;;;;56.25;29.67;;;;;;;-143.90;100.00;65065.84;6182438;23;20013;-76
2023/10/20 05:23:33;;;;;;;60.03;32.03;;;;;;;-143.90;100.00;65065.84;6182467;23;20009;-77
2023/10/20 05:25:59;;;;;;;57.25;30.55;;;;;;;-143.90;100.00;65065.84;6157678;23;20143;-76
2023/10/20 05:28:24;;;;;;;64.93;32.25;;;;;;;-143.90;100.00;65065.84;6182489;23;20452;-76
2023/10/20 05:30:50;;;;;;;63.90;33.55;;;;;;;-143.90;100.00;65065.84;6183857;23;20536;-77
2023/10/20 05:33:16;;;;;;;62.90;31.60;;;;;;;-143.90;100.00;65065.84;6157440;23;20012;-77
2023/10/20 05:35:43;;;;;;;61.88;34.08;;;;;;;-143.90;100.00;65065.84;6183765;23;20009;-77
2023/10/20 05:38:09;;;;;;;64.50;34.63;;;;;;;-143.90;100.00;65065.84;6157618;23;20033;-76
2023/10/20 05:40:35;;;;;;;63.80;34.47;;;;;;;-143.90;100.00;65065.84;6157730;23;20008;-76
2023/10/20 05:43:03;;;;;;;63.40;33.28;;;;;;;-143.90;100.00;65065.84;6184036;23;20066;-77
2023/10/20 05:45:32;;;;;;;60.03;33.38;;;;;;;-143.90;100.00;65065.84;6157456;23;20004;-77
2023/10/20 05:47:59;;;;;;;62.47;31.55;;;;;;;-143.90;100.00;65065.84;6157325;23;20421;-77
2023/10/20 05:50:24;;;;;;;65.97;34.05;;;;;;;-143.90;100.00;65065.84;6157679;23;20032;-77
2023/10/20 05:52:51;;;;;;;62.55;35.50;;;;;;;-143.90;100.00;65065.84;6183932;23;20414;-76
2023/10/20 05:55:16;;;;;;;63.40;35.50;;;;;;;-143.90;100.00;65065.84;6182238;23;20378;-76
2023/10/20 05:57:41;;;;;;;63.65;35.63;;;;;;;-143.90;100.00;65065.84;6183949;23;20056;-76
2023/10/20 06:00:08;;;;;;;68.15;34.33;;;;;;;-143.90;100.00;65065.84;6184062;23;20125;-77
2023/10/20 06:02:34;;;;;;;59.53;32.83;;;;;;;-143.90;100.00;65065.84;6183944;23;20009;-78
2023/10/20 06:05:00;;;;;;;65.28;36.13;;;;;;;-143.90;100.00;65065.84;6157498;23;20012;-78
2023/10/20 06:07:27;;;;;;;60.92;32.33;;;;;;;-143.90;100.00;65065.84;6183802;23;20005;-79
2023/10/20 06:09:53;;;;;;;58.03;33.78;;;;;;;-143.90;100.00;65065.84;6183853;23;20092;-78
2023/10/20 06:12:19;;;;;;;57.45;33.10;;;;;;;-143.90;100.00;65065.84;6184435;23;20005;-76
2023/10/20 06:14:46;;;;;;;57.70;33.35;;;;;;;-143.90;100.00;65065.84;6184316;23;20009;-76
2023/10/20 06:17:11;;;;;;;62.30;32.35;;;;;;;-143.90;100.00;65065.84;6184250;23;20005;-77
2023/10/20 06:19:37;;;;;;;60.58;32.22;;;;;;;-143.90;100.00;65065.84;6184305;23;20090;-77
2023/10/20 06:22:03;;;;;;;65.32;35.00;;;;;;;-143.90;100.00;65065.84;6157788;23;20035;-79
2023/10/20 06:24:28;;;;;;;62.42;33.67;;;;;;;-143.90;100.00;65065.84;6182241;23;20009;-78
2023/10/20 06:26:55;;;;;;;58.53;32.80;;;;;;;-143.90;100.00;65065.84;6182325;23;20393;-78
2023/10/20 06:31:52;;;;;;;63.42;34.38;;;;;;;-143.90;100.00;65065.84;6184101;23;20084;-77
2023/10/20 06:36:48;;;;;;;60.80;33.30;;;;;;;-143.90;100.00;65065.84;6184184;23;20017;-79
2023/10/20 06:39:14;;;;;;;67.28;35.20;;;;;;;-143.90;100.00;65065.84;6182105;23;20064;-80
2023/10/20 06:41:40;;;;;;;65.30;37.20;;;;;;;-143.90;100.00;65065.84;6183277;23;20005;-81
2023/10/20 06:44:06;;;;;;;63.45;34.15;;;;;;;-143.90;100.00;65065.84;6157300;23;20016;-80
2023/10/20 06:46:31;;;;;;;58.75;34.08;;;;;;;-143.90;100.00;65065.84;6183681;23;20072;-80
2023/10/20 06:48:56;;;;;;;68.13;36.47;;;;;;;-143.90;100.00;65065.84;6181814;23;20071;-80
2023/10/20 06:51:23;;;;;;;58.53;33.22;;;;;;;-143.90;100.00;65065.84;6183470;23;20064;-80
2023/10/20 06:53:49;;;;;;;64.95;36.75;;;;;;;-143.90;100.00;65065.84;6183611;23;20120;-82
2023/10/20 06:56:14;;;;;;;62.22;34.72;;;;;;;-143.90;100.00;65065.84;6181912;23;20122;-80
2023/10/20 06:58:40;;;;;;;59.95;31.70;;;;;;;-143.90;100.00;65065.84;6183334;23;20021;-80
2023/10/20 07:01:05;;;;;;;66.82;35.90;;;;;;;-143.90;100.00;65065.84;6183397;23;20001;-81
2023/10/20 07:03:32;;;;;;;69.45;37.22;;;;;;;-143.90;100.00;65065.84;6157032;23;20020;-81
2023/10/20 07:05:58;;;;;;;60.72;36.03;;;;;;;-143.90;100.00;65065.84;6183396;23;20001;-81
2023/10/20 07:08:24;;;;;;;55.97;29.75;;;;;;;-143.90;100.00;65065.84;6183473;23;20056;-81
2023/10/20 07:10:50;;;;;;;61.17;31.33;;;;;;;-143.90;100.00;65065.84;6183526;23;20011;-82
2023/10/20 07:13:17;;;;;;;64.90;36.05;;;;;;;-143.90;100.00;65065.84;6157075;23;20009;-83
2023/10/20 07:15:43;;;;;;;64.25;32.72;;;;;;;-143.90;100.00;65065.84;6183260;23;20067;-81
2023/10/20 07:18:08;;;;;;;59.33;30.08;;;;;;;-143.90;100.00;65065.84;6183217;23;20478;-79
2023/10/20 07:20:38;;;;;;;54.78;30.15;;;;;;;-143.90;100.00;65065.84;6183244;23;20019;-79
2023/10/20 07:23:06;;;;;;;67.43;30.20;;;;;;;-143.90;100.00;65065.84;6183553;23;20048;-79
2023/10/20 07:25:32;;;;;;;65.75;31.63;;;;;;;-143.90;100.00;65065.84;6183229;23;20373;-81
2023/10/20 07:27:58;;;;;;;59.08;29.77;;;;;;;-143.90;100.00;65065.84;6183178;23;20055;-80
2023/10/20 07:30:23;;;;;;;62.05;32.83;;;;;;;-143.90;100.00;65065.84;6183158;23;20009;-81
2023/10/20 07:32:51;;;;;;;62.22;31.25;;;;;;;-143.90;100.00;65065.84;6181621;23;20028;-80
2023/10/20 07:35:17;;;;;;;50.53;26.77;;;;;;;-143.90;100.00;65065.84;6181538;23;20013;-79
2023/10/20 07:37:43;;;;;;;52.65;26.83;;;;;;;-143.90;100.00;65065.84;6181493;23;20024;-81
2023/10/20 07:40:09;;;;;;;55.80;30.08;;;;;;;-143.90;100.00;65065.84;6183139;23;20017;-80
2023/10/20 07:42:35;;;;;;;53.72;27.27;;;;;;;-143.90;100.00;65065.84;6183217;23;20072;-81
2023/10/20 07:45:00;;;;;;;44.33;25.88;;;;;;;-143.90;100.00;65065.84;6183215;23;20039;-80
2023/10/20 07:47:27;;;;;;;51.03;25.75;;;;;;;-143.90;100.00;65065.84;6181592;23;20032;-81
2023/10/20 07:49:52;;;;;;;43.88;24.27;;;;;;;-143.90;100.00;65065.84;6183151;23;20028;-82
2023/10/20 07:52:17;;;;;;;50.33;27.42;;;;;;;-143.90;100.00;65065.84;6183910;23;20418;-81
2023/10/20 07:54:44;;;;;;;34.22;19.92;;;;;;;-143.90;100.00;65065.84;6158168;23;20080;-83
2023/10/20 07:57:10;;;;;;;54.13;25.00;;;;;;;-143.90;100.00;65065.84;6184749;23;20012;-82
2023/10/20 07:59:35;;;;;;;40.15;24.35;;;;;;;-143.90;100.00;65065.84;6182827;23;20032;-82
2023/10/20 08:02:01;;;;;;;41.30;23.00;;;;;;;-143.90;100.00;65065.84;6182990;23;20059;-82
2023/10/20 08:04:26;;;;;;;33.90;20.23;;;;;;;-143.90;100.00;65065.84;6184538;23;19997;-81
2023/10/20 08:07:31;;;;;;;40.35;21.60;;;;;;;-143.90;100.00;65065.84;6184578;23;20492;-82
2023/10/20 08:09:57;;;;;;;30.60;18.98;;;;;;;-143.90;100.00;65065.84;6183128;23;20068;-83
2023/10/20 08:12:22;;;;;;;36.83;20.65;;;;;;;-143.90;100.00;65065.84;6158098;23;20009;-82
2023/10/20 08:15:26;;;;;;;36.95;21.83;;;;;;;-143.90;100.00;65065.84;6184338;23;20009;-81
2023/10/20 08:18:12;;;;;;;34.38;19.10;;;;;;;-143.90;100.00;65065.84;6184404;23;20055;-81
2023/10/20 08:20:38;;;;;;;34.70;20.50;;;;;;;-143.90;100.00;65065.84;6183020;23;20017;-83
2023/10/20 08:23:11;;;;;;;29.35;19.42;;;;;;;-143.90;100.00;65065.84;6158110;23;20088;-82
2023/10/20 08:25:43;;;;;;;;;;;;;;;-143.90;100.00;65065.84;6184962;23;20012;-80
2023/10/20 08:31:30;;;;;;;33.70;18.17;;;;;;;-143.90;100.00;65065.84;6184499;23;20059;-83
2023/10/20 08:37:18;;;;;;;31.05;16.75;;;;;;;-143.90;100.00;65065.84;6184936;23;20042;-82
2023/10/20 08:39:44;;;;;;;27.20;15.88;;;;;;;-143.90;100.00;65065.84;6157974;23;20029;-81
2023/10/20 08:49:07;;;;;;;28.83;16.30;;;;;;;-143.90;100.00;65065.84;6169319;23;20398;-81
2023/10/20 08:51:38;;;;;;;28.92;15.85;;;;;;;-143.90;100.00;65065.84;6184336;23;20012;-84
2023/10/20 08:54:08;;;;;;;25.75;13.65;;;;;;;-143.90;100.00;65065.84;6184338;23;20024;-80
2023/10/20 08:56:34;;;;;;;21.55;15.05;;;;;;;-143.90;100.00;65065.84;6182663;23;20087;-81
2023/10/20 08:58:59;;;;;;;24.90;16.95;;;;;;;-143.90;100.00;65065.84;6182786;23;20374;-83
2023/10/20 09:01:25;;;;;;;20.58;13.85;;;;;;;-143.90;100.00;65065.84;6157922;23;20330;-82
2023/10/20 09:03:52;;;;;;;23.65;13.05;;;;;;;-143.90;100.00;65065.84;6183936;23;20005;-82
2023/10/20 09:06:18;;;;;;;20.95;12.93;;;;;;;-143.90;100.00;65065.84;6184399;23;20043;-81
2023/10/20 09:09:15;;;;;;;16.38;10.40;;;;;;;-143.90;100.00;65065.84;6184459;23;20009;-82
2023/10/20 09:12:13;;;;;;;18.42;12.38;;;;;;;-143.90;100.00;65065.84;6183193;23;20431;-85
2023/10/20 09:21:12;;;;;;;12.57;9.10;;;;;;;-143.90;100.00;65065.84;6036589;23;20018;-82
2023/10/20 09:23:39;;;;;;;11.25;8.57;;;;;;;-143.90;100.00;65065.84;6157606;23;20009;-81
2023/10/20 09:26:04;;;;;;;8.40;6.85;;;;;;;-143.90;100.00;65065.84;6158000;23;20009;-79
2023/10/20 09:35:10;;;;;;;9.57;7.32;;;;;;;-143.90;100.00;65065.84;6122648;23;20021;-82
2023/10/20 09:38:12;;;;;;;9.63;7.55;;;;;;;-143.90;100.00;65065.84;6122014;23;20431;-82
2023/10/20 09:44:08;;;;;;;12.50;6.97;;;;;;;-143.90;100.00;65065.84;6181434;23;20459;-81
2023/10/20 09:46:47;;;;;;;11.15;7.20;;;;;;;-143.90;100.00;65065.84;6183804;23;20033;-82
2023/10/20 09:49:35;;;;;;;7.35;6.10;;;;;;;-143.90;100.00;65065.84;6181310;23;20020;-81
2023/10/20 09:52:01;;;;;;;8.88;6.07;;;;;;;-143.90;100.00;65065.84;6157589;23;20001;-83
2023/10/20 09:54:31;;;;;;;6.28;4.72;;;;;;;-143.90;100.00;65065.84;6183890;23;20015;-82
2023/10/20 09:56:58;;;;;;;11.88;5.63;;;;;;;-143.90;100.00;65065.84;6182484;23;20004;-84
2023/10/20 09:59:27;;;;;;;8.25;6.45;;;;;;;-143.90;100.00;65065.84;6181483;23;20096;-83
2023/10/20 10:01:59;;;;;;;8.43;6.32;;;;;;;-143.90;100.00;65065.84;6183915;23;20016;-84
2023/10/20 10:04:38;;;;;;;7.68;5.53;;;;;;;-143.90;100.00;65065.84;6182328;23;20341;-86
2023/10/20 10:07:33;;;;;;;6.78;5.55;;;;;;;-143.90;100.00;65065.84;6157727;23;20142;-84
2023/10/20 10:10:33;;;;;;;7.80;6.32;;;;;;;-143.90;100.00;65065.84;6157498;23;20023;-83
2023/10/20 10:13:42;;;;;;;7.72;6.35;;;;;;;-143.90;100.00;65065.84;6182337;23;20009;-82
2023/10/20 10:16:14;;;;;;;7.03;6.13;;;;;;;-143.90;100.00;65065.84;6183145;23;20016;-80
2023/10/20 10:18:45;;;;;;;7.85;6.40;;;;;;;-143.90;100.00;65065.84;6183978;23;20005;-80
2023/10/20 10:21:23;;;;;;;8.68;6.68;;;;;;;-143.90;100.00;65065.84;6182333;23;20032;-82
2023/10/20 10:24:23;;;;;;;7.30;6.55;;;;;;;-143.90;100.00;65065.84;6183780;23;20441;-81
2023/10/20 10:34:47;;;;;;;9.57;7.60;;;;;;;-143.90;100.00;65065.84;6121862;23;20395;-80
2023/10/20 10:37:27;;;;;;;7.97;6.65;;;;;;;-143.90;100.00;65065.84;6120446;23;20013;-81
2023/10/20 10:39:52;;;;;;;9.45;8.20;;;;;;;-143.90;100.00;65065.84;6121746;23;20526;-79
2023/10/20 10:42:19;;;;;;;8.98;8.07;;;;;;;-143.90;100.00;65065.84;6177553;23;20012;-81
2023/10/20 10:48:10;;;;;;;9.88;8.40;;;;;;;-143.90;100.00;65065.84;6183930;23;20457;-81
2023/10/20 10:50:45;;;;;;;9.30;8.15;;;;;;;-143.90;100.00;65065.84;6183565;23;20011;-81
2023/10/20 10:53:14;;;;;;;8.95;8.00;;;;;;;-143.90;100.00;65065.84;6157270;23;20005;-81
2023/10/20 10:55:41;;;;;;;7.85;7.05;;;;;;;-143.90;100.00;65065.84;6157457;23;20071;-80
2023/10/20 10:58:19;;;;;;;8.52;7.25;;;;;;;-143.90;100.00;65065.84;6157216;23;20096;-81
2023/10/20 11:00:47;;;;;;;10.40;8.05;;;;;;;-143.90;100.00;65065.84;6183376;23;20005;-81
2023/10/20 11:03:14;;;;;;;9.05;7.97;;;;;;;-143.90;100.00;65065.84;6157139;23;20045;-83
2023/10/20 11:05:39;;;;;;;8.85;7.82;;;;;;;-143.90;100.00;65065.84;6181875;23;20063;-83
2023/10/20 11:12:03;;;;;;;8.07;6.97;;;;;;;-143.90;100.00;65065.84;6183489;23;20125;-83
2023/10/20 11:14:28;;;;;;;8.35;7.00;;;;;;;-143.90;100.00;65065.84;6157157;23;20013;-83
2023/10/20 11:16:54;;;;;;;10.30;9.23;;;;;;;-143.90;100.00;65065.84;6156951;23;20023;-83
2023/10/20 11:19:20;;;;;;;10.75;9.65;;;;;;;-143.90;100.00;65065.84;6183275;23;20005;-82
2023/10/20 11:21:52;;;;;;;13.43;11.60;;;;;;;-143.90;100.00;65065.84;6157077;23;20005;-82
2023/10/20 11:24:28;;;;;;;16.10;14.60;;;;;;;-143.90;100.00;65065.84;6157482;23;20319;-81
2023/10/20 11:27:01;;;;;;;14.20;12.50;;;;;;;-143.90;100.00;65065.84;6184075;23;20008;-80
2023/10/20 11:29:31;;;;;;;15.23;13.73;;;;;;;-143.90;100.00;65065.84;6183000;23;20367;-80
2023/10/20 11:32:05;;;;;;;16.70;14.95;;;;;;;-143.90;100.00;65065.84;6184653;23;20005;-81
2023/10/20 11:35:07;;;;;;;16.83;15.07;;;;;;;-143.90;100.00;65065.84;6154267;23;20460;-83
2023/10/20 11:40:54;;;;;;;17.45;14.27;;;;;;;-143.90;100.00;65065.84;6184768;23;20079;-83
2023/10/20 11:43:22;;;;;;;17.58;15.70;;;;;;;-143.90;100.00;65065.84;6183107;23;20013;-84
2023/10/20 11:45:47;;;;;;;19.45;17.27;;;;;;;-143.90;100.00;65065.84;6182881;23;20005;-82
2023/10/20 11:48:13;;;;;;;20.15;18.13;;;;;;;-143.90;100.00;65065.84;6184394;23;20032;-82
2023/10/20 11:54:03;;;;;;;17.67;15.70;;;;;;;-143.90;100.00;65065.84;6184519;23;20016;-83
2023/10/20 12:03:29;;;;;;;22.33;16.70;;;;;;;-143.90;100.00;65065.84;6160126;23;20342;-84
2023/10/20 12:06:00;;;;;;;21.85;19.20;;;;;;;-143.90;100.00;65065.84;6181709;23;20013;-84
2023/10/20 12:11:47;;;;;;;21.25;15.18;;;;;;;-143.90;100.00;65065.84;6182163;23;20113;-83
2023/10/20 12:14:14;;;;;;;22.98;18.38;;;;;;;-143.90;100.00;65065.84;6184137;23;20105;-83
2023/10/20 12:16:40;;;;;;;20.77;16.08;;;;;;;-143.90;100.00;65065.84;6158041;23;20342;-82
2023/10/20 12:19:06;;;;;;;22.63;18.63;;;;;;;-143.90;100.00;65065.84;6157910;23;20009;-83
2023/10/20 12:21:32;;;;;;;22.13;18.23;;;;;;;-143.90;100.00;65065.84;6182823;23;20572;-86
2023/10/20 12:24:11;;;;;;;20.63;17.55;;;;;;;-143.90;100.00;65065.84;6182709;23;20013;-85
2023/10/20 12:26:52;;;;;;;;;;;;;;;;;;;;;
2023/10/20 12:29:29;;;;;;;21.98;18.27;;;;;;;-143.90;100.00;65065.84;6184291;23;20079;-84
2023/10/20 12:31:54;;;;;;;18.90;15.80;;;;;;;-143.90;100.00;65065.84;6184348;23;20009;-82
2023/10/20 12:34:25;;;;;;;16.63;14.65;;;;;;;-143.90;100.00;65065.84;6184463;23;20072;-83
2023/10/20 12:37:17;;;;;;;17.05;14.77;;;;;;;-143.90;100.00;65065.84;6157819;23;20346;-83
2023/10/20 12:39:42;;;;;;;15.50;13.00;;;;;;;-143.90;100.00;65065.84;6184100;23;20017;-84
2023/10/20 12:42:18;;;;;;;15.18;13.57;;;;;;;-143.90;100.00;65065.84;6182906;23;20101;-84